Time;durP1;ratioP1;P1;durP2;ratioP2;P2;SDS_P1;SDS_P2;PMS_P1;PMS_P2;Temp;Humidity;BMP_temperature;BMP_pressure;BME280_temperature;BME280_humidity;BME280_pressure;Samples;Min_cycle;Max_cycle;Signal;HPM_P1;HPM_P2
2021/11/24 00:00:30;;;;;;;54.03;23.50;;;;;;;-1.51;95.79;99574.22;5065324;28;20027;-64
2021/11/24 00:02:55;;;;;;;51.72;21.75;;;;;;;-1.52;95.67;99569.84;5065328;28;20358;-64
2021/11/24 00:05:21;;;;;;;75.38;28.77;;;;;;;-1.54;96.46;99568.94;5065431;28;20020;-64
2021/11/24 00:07:47;;;;;;;63.25;24.63;;;;;;;-1.57;95.83;99565.31;5065248;28;20024;-64
2021/11/24 00:10:15;;;;;;;62.47;24.85;;;;;;;-1.43;95.86;99570.25;5065273;28;20020;-64
2021/11/24 00:12:40;;;;;;;54.40;22.02;;;;;;;-1.46;95.02;99559.78;5065047;28;20088;-64
2021/11/24 00:15:07;;;;;;;61.33;25.05;;;;;;;-1.46;94.32;99569.25;5064897;28;20051;-64
2021/11/24 00:17:33;;;;;;;55.47;21.17;;;;;;;-1.51;93.92;99566.47;5065110;28;20332;-64
2021/11/24 00:19:58;;;;;;;51.88;21.27;;;;;;;-1.48;94.05;99561.44;5064948;28;20020;-64
2021/11/24 00:22:24;;;;;;;63.75;23.92;;;;;;;-1.56;94.11;99552.47;5064875;28;20013;-64
2021/11/24 00:24:49;;;;;;;69.35;24.10;;;;;;;-1.59;94.55;99557.50;5064997;28;20048;-64
2021/11/24 00:27:15;;;;;;;65.88;24.27;;;;;;;-1.60;94.39;99550.59;5064702;28;20025;-64
2021/11/24 00:29:40;;;;;;;65.15;23.63;;;;;;;-1.74;95.07;99556.84;5064889;28;20025;-64
2021/11/24 00:32:06;;;;;;;51.75;21.23;;;;;;;-1.69;95.61;99550.19;5064829;28;20020;-64
2021/11/24 00:34:31;;;;;;;52.83;19.65;;;;;;;-1.57;94.99;99550.72;5064459;28;20066;-64
2021/11/24 00:36:57;;;;;;;54.78;20.70;;;;;;;-1.61;94.43;99556.59;5064744;28;20317;-64
2021/11/24 00:39:22;;;;;;;49.25;18.30;;;;;;;-1.54;94.16;99552.53;5064585;28;20194;-64
2021/11/24 00:41:48;;;;;;;45.17;18.38;;;;;;;-1.76;93.94;99550.75;5064583;28;20016;-64
2021/11/24 00:44:13;;;;;;;46.70;18.80;;;;;;;-1.63;93.93;99542.72;5064798;28;20040;-64
2021/11/24 00:46:39;;;;;;;42.65;18.95;;;;;;;-1.81;94.02;99536.75;5064385;28;20025;-64
2021/11/24 00:49:05;;;;;;;39.22;15.57;;;;;;;-1.75;94.96;99544.78;5064754;28;20024;-64
2021/11/24 00:51:30;;;;;;;45.13;18.90;;;;;;;-1.97;94.34;99542.06;5064525;28;20088;-64
2021/11/24 00:53:55;;;;;;;25.95;11.52;;;;;;;-1.86;94.98;99543.44;5064223;28;20021;-64
2021/11/24 00:56:20;;;;;;;35.00;13.10;;;;;;;-1.89;94.88;99551.03;5064278;28;20336;-65
2021/11/24 00:58:46;;;;;;;32.80;15.30;;;;;;;-1.99;95.43;99542.81;5063993;28;20031;-65
2021/11/24 01:01:11;;;;;;;27.92;10.93;;;;;;;-1.92;96.17;99539.69;5064172;28;20186;-64
2021/11/24 01:03:38;;;;;;;20.90;9.93;;;;;;;-1.93;96.51;99543.97;5064226;28;20090;-64
2021/11/24 01:06:04;;;;;;;31.30;11.40;;;;;;;-1.87;97.40;99540.78;5063957;28;20025;-64
2021/11/24 01:08:30;;;;;;;32.90;11.50;;;;;;;-1.77;97.11;99541.22;5064032;28;20020;-64
2021/11/24 01:10:55;;;;;;;25.35;11.10;;;;;;;-1.92;95.64;99545.75;5064095;28;20017;-64
2021/11/24 01:13:21;;;;;;;23.60;10.45;;;;;;;-1.94;94.90;99538.72;5063892;28;20212;-64
2021/11/24 01:15:47;;;;;;;18.58;9.18;;;;;;;-2.01;95.20;99529.88;5063654;28;20163;-64
2021/11/24 01:18:13;;;;;;;25.95;11.18;;;;;;;-1.93;95.12;99528.47;5063967;28;20032;-64
2021/11/24 01:20:39;;;;;;;23.33;10.05;;;;;;;-1.90;95.61;99532.91;5063801;28;20020;-64
2021/11/24 01:23:04;;;;;;;19.90;9.52;;;;;;;-1.82;95.51;99532.44;5063862;28;20039;-64
2021/11/24 01:25:30;;;;;;;22.60;10.32;;;;;;;-1.81;94.54;99529.03;5063696;28;20071;-64
2021/11/24 01:27:58;;;;;;;20.75;9.93;;;;;;;-1.93;94.02;99535.38;5063827;28;20339;-64
2021/11/24 01:30:24;;;;;;;19.73;9.43;;;;;;;-1.93;93.56;99533.63;5063822;28;20043;-64
2021/11/24 01:32:49;;;;;;;21.52;9.77;;;;;;;-1.99;93.63;99529.94;5063526;28;20419;-64
2021/11/24 01:35:15;;;;;;;20.83;10.48;;;;;;;-2.03;94.19;99528.91;5063629;28;20021;-65
2021/11/24 01:37:41;;;;;;;37.42;12.07;;;;;;;-2.04;95.56;99529.72;5063703;28;20096;-65
2021/11/24 01:40:07;;;;;;;24.10;9.95;;;;;;;-1.95;96.20;99530.13;5063643;28;20028;-65
2021/11/24 01:42:33;;;;;;;20.92;9.57;;;;;;;-1.93;96.15;99533.63;5063616;28;20013;-65
2021/11/24 01:45:00;;;;;;;27.60;10.95;;;;;;;-1.84;95.61;99534.03;5063808;28;20013;-64
2021/11/24 01:47:25;;;;;;;21.83;7.82;;;;;;;-1.97;95.29;99521.44;5063612;28;20040;-64
2021/11/24 01:49:51;;;;;;;18.30;8.70;;;;;;;-1.88;95.23;99521.84;5063456;28;20052;-64
2021/11/24 01:52:16;;;;;;;28.63;9.35;;;;;;;-1.92;93.85;99519.94;5063818;28;20309;-64
2021/11/24 01:54:41;;;;;;;16.70;8.20;;;;;;;-1.95;93.21;99508.59;5063362;28;20272;-64
2021/11/24 01:57:07;;;;;;;23.98;9.93;;;;;;;-2.25;93.55;99509.03;5063552;28;20017;-64
2021/11/24 01:59:32;;;;;;;19.08;8.57;;;;;;;-2.27;95.09;99510.66;5063456;28;20056;-64
2021/11/24 02:01:57;;;;;;;21.45;9.48;;;;;;;-2.38;95.14;99516.16;5063215;28;20320;-64
2021/11/24 02:04:23;;;;;;;24.65;11.18;;;;;;;-2.38;96.31;99513.56;5063581;28;20323;-64
2021/11/24 02:06:50;;;;;;;43.15;16.23;;;;;;;-2.24;96.76;99520.25;5063443;28;20024;-64
2021/11/24 02:09:16;;;;;;;30.40;13.25;;;;;;;-2.27;96.67;99514.94;5063897;28;20239;-64
2021/11/24 02:11:44;;;;;;;27.50;12.13;;;;;;;-2.18;96.93;99510.19;5067326;28;20088;-64
2021/11/24 02:14:10;;;;;;;28.33;11.65;;;;;;;-2.08;96.93;99507.22;5060942;28;20024;-64
2021/11/24 02:16:44;;;;;;;27.10;11.50;;;;;;;-1.98;97.62;99508.47;5067300;28;20041;-64
2021/11/24 02:19:09;;;;;;;28.17;11.07;;;;;;;-1.97;97.20;99505.97;5067482;28;20309;-64
2021/11/24 02:21:35;;;;;;;18.60;10.05;;;;;;;-1.95;96.30;99509.50;5067111;28;20023;-64
2021/11/24 02:24:00;;;;;;;18.88;9.25;;;;;;;-2.11;94.45;99501.91;5067181;28;20204;-64
2021/11/24 02:26:26;;;;;;;23.10;9.77;;;;;;;-2.15;94.44;99505.19;5067440;28;20016;-64
2021/11/24 02:28:51;;;;;;;19.02;7.90;;;;;;;-2.26;94.91;99506.38;5067030;28;20020;-64
2021/11/24 02:31:19;;;;;;;12.95;7.60;;;;;;;-2.15;95.82;99504.28;5067221;28;20232;-65
2021/11/24 02:33:52;;;;;;;13.98;6.90;;;;;;;-2.04;95.73;99498.78;5060516;28;20339;-65
2021/11/24 02:36:18;;;;;;;20.58;7.65;;;;;;;-2.01;96.25;99493.75;5067470;28;20024;-64
2021/11/24 02:38:45;;;;;;;25.20;7.80;;;;;;;-1.91;96.54;99495.91;5067275;28;20259;-64
2021/11/24 02:41:10;;;;;;;14.40;6.55;;;;;;;-1.94;96.39;99498.34;5066772;28;20013;-64
2021/11/24 02:43:35;;;;;;;14.48;6.82;;;;;;;-1.92;96.22;99483.84;5066689;28;20024;-64
2021/11/24 02:46:01;;;;;;;10.30;5.80;;;;;;;-1.95;95.76;99487.97;5066835;28;20143;-64
2021/11/24 02:48:26;;;;;;;14.15;7.45;;;;;;;-1.93;95.92;99479.47;5066657;28;20024;-64
2021/11/24 02:50:54;;;;;;;14.02;6.40;;;;;;;-1.94;96.05;99469.97;5066702;28;20040;-64
2021/11/24 02:53:31;;;;;;;16.17;7.10;;;;;;;-1.96;95.96;99470.75;5066552;28;20039;-64
2021/11/24 02:55:57;;;;;;;16.33;5.95;;;;;;;-1.91;95.49;99470.09;5066602;28;20033;-64
2021/11/24 02:58:23;;;;;;;11.18;5.55;;;;;;;-1.88;94.96;99475.41;5066633;28;20055;-64
2021/11/24 03:00:50;;;;;;;12.50;5.35;;;;;;;-1.97;94.19;99475.00;5066709;28;20308;-64
2021/11/24 03:03:15;;;;;;;13.20;6.30;;;;;;;-2.14;94.25;99465.69;5066390;28;20044;-64
2021/11/24 03:05:40;;;;;;;13.02;5.50;;;;;;;-2.14;94.86;99465.69;5066534;28;20036;-64
2021/11/24 03:08:06;;;;;;;12.48;5.90;;;;;;;-2.15;95.13;99461.34;5066296;28;20251;-64
2021/11/24 03:10:32;;;;;;;14.02;5.60;;;;;;;-2.09;95.64;99459.00;5066572;28;20291;-64
2021/11/24 03:12:59;;;;;;;13.18;5.47;;;;;;;-2.14;95.66;99462.19;5066349;28;20123;-64
2021/11/24 03:15:25;;;;;;;14.20;5.53;;;;;;;-2.16;95.84;99456.97;5066173;28;20040;-64
2021/11/24 03:17:50;;;;;;;14.88;5.95;;;;;;;-2.43;95.66;99458.38;5066324;28;20027;-64
2021/11/24 03:20:16;;;;;;;14.73;5.85;;;;;;;-2.44;95.71;99454.00;5066555;28;20028;-64
2021/11/24 03:22:42;;;;;;;14.85;6.70;;;;;;;-2.30;96.07;99453.78;5065895;28;20028;-64
2021/11/24 03:25:09;;;;;;;13.68;6.05;;;;;;;-2.28;95.68;99443.56;5065892;28;20347;-64
2021/11/24 03:27:39;;;;;;;15.82;6.25;;;;;;;-2.23;95.38;99434.34;5065995;28;20025;-64
2021/11/24 03:30:08;;;;;;;42.17;13.95;;;;;;;-2.33;95.31;99427.03;5066322;28;20327;-64
2021/11/24 03:32:34;;;;;;;48.78;18.55;;;;;;;-2.39;95.03;99431.91;5065993;28;20017;-64
2021/11/24 03:34:59;;;;;;;50.20;17.48;;;;;;;-2.44;94.85;99433.38;5066488;28;20079;-64
2021/11/24 03:37:25;;;;;;;39.50;17.80;;;;;;;-2.41;94.88;99430.94;5066096;28;20088;-64
2021/11/24 03:39:51;;;;;;;35.88;13.75;;;;;;;-2.38;94.76;99429.41;5065865;28;20048;-64
2021/11/24 03:42:16;;;;;;;27.48;9.68;;;;;;;-2.30;95.08;99424.56;5065706;28;20024;-64
2021/11/24 03:44:43;;;;;;;22.42;9.88;;;;;;;-2.35;94.76;99429.53;5065736;28;20311;-64
2021/11/24 03:47:08;;;;;;;25.80;11.10;;;;;;;-2.42;95.16;99418.88;5065737;28;20074;-64
2021/11/24 03:49:34;;;;;;;28.65;11.38;;;;;;;-2.29;96.28;99408.28;5065681;28;20091;-64
2021/11/24 03:51:59;;;;;;;34.85;12.00;;;;;;;-2.22;96.54;99418.94;5065475;28;20071;-65
2021/11/24 03:54:25;;;;;;;25.92;10.68;;;;;;;-2.25;95.91;99410.16;5065631;28;20312;-65
2021/11/24 03:56:50;;;;;;;28.48;10.93;;;;;;;-2.16;96.04;99410.56;5065548;28;20036;-65
2021/11/24 03:59:15;;;;;;;17.40;8.50;;;;;;;-2.26;94.90;99408.41;5065330;28;20037;-65
2021/11/24 04:01:41;;;;;;;26.15;9.95;;;;;;;-2.34;94.84;99404.66;5065329;28;20039;-65
2021/11/24 04:04:06;;;;;;;21.48;10.05;;;;;;;-2.34;94.81;99408.09;5065353;28;20065;-65
2021/11/24 04:06:32;;;;;;;28.20;11.68;;;;;;;-2.30;95.34;99406.53;5065258;28;20020;-65
2021/11/24 04:08:59;;;;;;;22.55;10.85;;;;;;;-2.34;94.93;99414.97;5065587;28;20017;-65
2021/11/24 04:11:24;;;;;;;28.58;10.95;;;;;;;-2.49;94.67;99402.28;5065390;28;20008;-65
2021/11/24 04:13:50;;;;;;;26.13;10.93;;;;;;;-2.40;94.98;99400.09;5065122;28;20151;-65
2021/11/24 04:16:15;;;;;;;27.13;11.63;;;;;;;-2.45;95.10;99395.56;5065017;28;20135;-65
2021/11/24 04:18:40;;;;;;;22.67;10.80;;;;;;;-2.41;95.15;99393.19;5065084;28;20243;-65
2021/11/24 04:21:06;;;;;;;20.92;9.55;;;;;;;-2.38;94.48;99395.00;5064829;28;20025;-65
2021/11/24 04:23:31;;;;;;;23.42;10.40;;;;;;;-2.34;94.94;99394.34;5065050;28;20021;-65
2021/11/24 04:25:56;;;;;;;29.67;10.10;;;;;;;-2.28;94.51;99386.84;5064949;28;20024;-65
2021/11/24 04:28:22;;;;;;;27.63;11.38;;;;;;;-2.32;94.54;99384.94;5064733;28;20027;-65
2021/11/24 04:30:48;;;;;;;16.15;8.43;;;;;;;-2.25;94.66;99390.44;5064718;28;20321;-65
2021/11/24 04:33:13;;;;;;;20.48;8.55;;;;;;;-2.52;93.97;99378.06;5064254;28;20037;-65
2021/11/24 04:35:39;;;;;;;25.63;9.35;;;;;;;-2.59;94.65;99370.91;5064788;28;20027;-65
2021/11/24 04:38:05;;;;;;;20.95;8.63;;;;;;;-2.61;95.12;99362.22;5064684;28;20039;-65
2021/11/24 04:40:32;;;;;;;25.88;10.60;;;;;;;-2.52;96.81;99372.91;5064532;28;20046;-65
2021/11/24 04:42:58;;;;;;;29.77;11.57;;;;;;;-2.60;96.73;99369.13;5064575;28;20016;-65
2021/11/24 04:45:24;;;;;;;27.90;11.30;;;;;;;-2.57;96.86;99374.41;5064500;28;20087;-65
2021/11/24 04:47:49;;;;;;;25.23;10.27;;;;;;;-2.48;97.28;99370.53;5064436;28;20020;-65
2021/11/24 04:50:16;;;;;;;23.98;10.40;;;;;;;-2.31;97.49;99373.84;5064561;28;20066;-65
2021/11/24 04:52:42;;;;;;;29.33;10.18;;;;;;;-2.20;98.13;99370.00;5064509;28;20017;-65
2021/11/24 04:55:08;;;;;;;18.10;8.82;;;;;;;-2.18;97.10;99368.38;5064301;28;21014;-65
2021/11/24 04:57:33;;;;;;;22.58;9.45;;;;;;;-2.20;96.83;99367.44;5064593;28;20078;-65
2021/11/24 04:59:58;;;;;;;24.35;8.05;;;;;;;-2.21;95.36;99365.69;5064145;28;20380;-65
2021/11/24 05:02:24;;;;;;;19.55;7.72;;;;;;;-2.20;94.49;99372.59;5064424;28;20012;-65
2021/11/24 05:04:49;;;;;;;20.15;9.18;;;;;;;-2.21;93.73;99365.69;5064019;28;20027;-65
2021/11/24 05:07:14;;;;;;;24.55;9.25;;;;;;;-2.24;93.82;99368.13;5064576;28;20020;-65
2021/11/24 05:09:40;;;;;;;23.40;9.93;;;;;;;-2.26;93.91;99367.16;5063679;28;20232;-65
2021/11/24 05:12:05;;;;;;;20.63;9.75;;;;;;;-2.41;93.88;99369.97;5064372;28;20028;-65
2021/11/24 05:14:34;;;;;;;25.00;10.18;;;;;;;-2.31;94.28;99369.56;5064272;28;20044;-65
2021/11/24 05:17:03;;;;;;;24.30;10.23;;;;;;;-2.34;94.67;99363.41;5064012;28;20044;-65
2021/11/24 05:19:30;;;;;;;18.67;8.98;;;;;;;-2.29;95.17;99361.88;5064016;28;20021;-65
2021/11/24 05:21:55;;;;;;;24.65;9.38;;;;;;;-2.27;95.57;99360.25;5064033;28;20032;-66
2021/11/24 05:24:21;;;;;;;20.15;8.63;;;;;;;-2.37;95.33;99358.13;5064423;28;20040;-66
2021/11/24 05:26:48;;;;;;;17.02;7.80;;;;;;;-2.34;95.76;99364.25;5064148;28;20084;-66
2021/11/24 05:29:14;;;;;;;16.73;7.72;;;;;;;-2.25;95.46;99353.44;5064372;28;20043;-64
2021/11/24 05:31:39;;;;;;;17.45;7.05;;;;;;;-2.15;95.97;99347.88;5063761;28;20333;-65
2021/11/24 05:34:04;;;;;;;17.65;7.20;;;;;;;-1.97;97.21;99356.34;5064015;28;20088;-65
2021/11/24 05:36:30;;;;;;;15.43;7.15;;;;;;;-1.97;96.57;99340.88;5071449;28;20032;-65
2021/11/24 05:38:55;;;;;;;16.33;6.13;;;;;;;-1.91;96.37;99346.28;5063663;28;20035;-65
2021/11/24 05:41:21;;;;;;;19.70;7.20;;;;;;;-1.93;95.36;99345.34;5063256;28;20024;-65
2021/11/24 05:43:48;;;;;;;21.38;7.50;;;;;;;-1.75;95.50;99353.81;5063457;28;20021;-65
2021/11/24 05:46:15;;;;;;;20.30;6.32;;;;;;;-1.56;95.77;99353.72;5063810;28;20021;-65
2021/11/24 05:48:43;;;;;;;16.33;6.75;;;;;;;-1.29;97.72;99356.50;5064082;28;20216;-65
2021/11/24 05:51:08;;;;;;;11.43;5.80;;;;;;;-1.30;96.83;99349.59;5063826;28;20084;-65
2021/11/24 05:53:34;;;;;;;13.55;6.82;;;;;;;-1.04;98.04;99349.72;5064067;28;20024;-65
2021/11/24 05:55:59;;;;;;;22.83;8.38;;;;;;;-0.56;100.00;99355.81;5062194;28;20024;-65
2021/11/24 05:58:25;;;;;;;18.25;6.38;;;;;;;-0.87;98.17;99342.59;5062831;28;20357;-65
2021/11/24 06:00:51;;;;;;;13.77;6.00;;;;;;;-0.71;97.07;99345.81;5061867;28;20033;-65
2021/11/24 06:03:17;;;;;;;13.43;6.57;;;;;;;-0.74;96.98;99334.47;5049972;28;20026;-65
2021/11/24 06:05:42;;;;;;;18.58;8.55;;;;;;;0.01;100.00;99332.78;5043346;28;20028;-65
2021/11/24 06:08:07;;;;;;;15.77;8.20;;;;;;;0.21;100.00;99327.38;5042396;28;20048;-65
2021/11/24 06:10:32;;;;;;;20.75;9.52;;;;;;;0.46;100.00;99327.31;5043046;28;20419;-65
2021/11/24 06:12:58;;;;;;;26.25;9.73;;;;;;;0.88;100.00;99323.47;5043030;28;20071;-65
2021/11/24 06:15:24;;;;;;;26.90;9.73;;;;;;;1.09;100.00;99324.06;5043856;28;20041;-65
2021/11/24 06:17:49;;;;;;;25.67;10.68;;;;;;;1.38;100.00;99317.97;5055167;28;20198;-65
2021/11/24 06:20:17;;;;;;;24.10;9.43;;;;;;;1.64;99.97;99322.13;5062642;28;20021;-65
2021/11/24 06:22:43;;;;;;;21.65;8.85;;;;;;;1.75;99.31;99320.72;5062357;28;20028;-65
2021/11/24 06:25:10;;;;;;;18.20;8.45;;;;;;;1.80;98.48;99324.28;5062604;28;20027;-65
2021/11/24 06:27:35;;;;;;;20.05;9.05;;;;;;;1.81;97.98;99323.47;5062823;28;20072;-65
2021/11/24 06:30:01;;;;;;;19.45;8.55;;;;;;;2.04;97.79;99324.94;5062566;28;20096;-65
2021/11/24 06:32:26;;;;;;;21.80;8.07;;;;;;;2.22;97.51;99328.00;5062497;28;20012;-65
2021/11/24 06:34:52;;;;;;;17.60;8.23;;;;;;;2.33;96.96;99325.63;5062117;28;20025;-65
2021/11/24 06:37:17;;;;;;;20.23;8.48;;;;;;;2.32;96.63;99322.16;5062473;28;20036;-65
2021/11/24 06:39:43;;;;;;;14.02;7.95;;;;;;;2.37;96.27;99317.94;5062442;28;20032;-65
2021/11/24 06:42:08;;;;;;;18.70;7.82;;;;;;;2.38;96.21;99321.44;5062367;28;20035;-65
2021/11/24 06:44:34;;;;;;;16.48;7.30;;;;;;;2.53;95.89;99333.03;5069892;28;20067;-65
2021/11/24 06:46:59;;;;;;;20.67;7.60;;;;;;;2.56;95.60;99327.06;5066616;28;20034;-65
2021/11/24 06:49:24;;;;;;;14.00;7.05;;;;;;;2.57;95.46;99321.91;5056606;28;20028;-65
2021/11/24 06:51:50;;;;;;;18.50;7.63;;;;;;;2.64;95.28;99318.59;5071883;28;20033;-65
2021/11/24 06:54:17;;;;;;;17.05;7.10;;;;;;;2.64;95.43;99316.00;5082357;28;20364;-65
2021/11/24 06:56:44;;;;;;;14.52;7.50;;;;;;;2.75;94.74;99324.03;5084995;28;20025;-65
2021/11/24 06:59:10;;;;;;;18.27;7.35;;;;;;;2.87;94.81;99314.78;5085980;28;20377;-65
2021/11/24 07:01:35;;;;;;;27.60;8.75;;;;;;;2.86;94.64;99307.81;5065710;28;20020;-65
2021/11/24 07:04:00;;;;;;;18.30;7.20;;;;;;;2.90;94.09;99314.84;5065771;28;20051;-65
2021/11/24 07:06:26;;;;;;;22.85;7.90;;;;;;;2.98;94.12;99318.50;5065834;28;20113;-65
2021/11/24 07:08:51;;;;;;;21.98;7.07;;;;;;;2.92;94.13;99314.88;5065788;28;20048;-65
2021/11/24 07:11:16;;;;;;;15.02;8.35;;;;;;;2.97;94.06;99316.72;5065748;28;20028;-65
2021/11/24 07:13:41;;;;;;;14.25;7.18;;;;;;;2.96;94.25;99327.97;5065313;28;20021;-65
2021/11/24 07:16:07;;;;;;;17.50;7.25;;;;;;;3.04;94.09;99323.78;5065500;28;20045;-65
2021/11/24 07:18:32;;;;;;;20.95;7.43;;;;;;;3.15;93.77;99317.13;5084371;28;20078;-65
2021/11/24 07:20:57;;;;;;;12.20;6.70;;;;;;;3.13;92.73;99323.13;5085900;28;20023;-65
2021/11/24 07:23:23;;;;;;;14.27;7.57;;;;;;;3.17;93.02;99325.84;5085419;28;20024;-65
2021/11/24 07:25:48;;;;;;;12.93;6.43;;;;;;;3.25;92.81;99339.88;5085596;28;20193;-65
2021/11/24 07:28:14;;;;;;;14.93;6.60;;;;;;;3.23;92.47;99325.06;5053573;28;20279;-65
2021/11/24 07:30:40;;;;;;;13.02;6.53;;;;;;;3.22;93.17;99329.38;5050632;28;20277;-65
2021/11/24 07:33:05;;;;;;;16.67;7.43;;;;;;;3.26;92.50;99328.59;5056061;28;20021;-64
2021/11/24 07:35:32;;;;;;;17.17;6.80;;;;;;;3.36;92.39;99320.13;5054150;28;20092;-65
2021/11/24 07:37:57;;;;;;;14.50;6.97;;;;;;;3.37;91.42;99319.31;5054881;28;20088;-65
2021/11/24 07:40:23;;;;;;;17.55;7.65;;;;;;;3.41;91.42;99313.31;5055559;28;20017;-65
2021/11/24 07:42:50;;;;;;;13.38;7.40;;;;;;;3.34;91.94;99329.66;5053682;28;20309;-65
2021/11/24 07:45:15;;;;;;;14.18;7.82;;;;;;;3.36;91.92;99327.94;5054981;28;20044;-65
2021/11/24 07:47:41;;;;;;;17.10;6.75;;;;;;;3.34;91.75;99321.84;5055321;28;20260;-65
2021/11/24 07:50:06;;;;;;;18.05;7.30;;;;;;;3.35;91.58;99310.56;5053664;28;20021;-65
2021/11/24 07:52:32;;;;;;;15.15;7.03;;;;;;;3.37;91.79;99308.00;5057705;28;20021;-65
2021/11/24 07:54:58;;;;;;;11.40;6.28;;;;;;;3.36;91.76;99309.72;5055028;28;20248;-65
2021/11/24 07:57:23;;;;;;;15.85;7.22;;;;;;;3.46;91.44;99314.28;5053743;28;20025;-65
2021/11/24 07:59:49;;;;;;;11.88;6.63;;;;;;;3.39;91.50;99306.31;5061990;28;20112;-65
2021/11/24 08:02:14;;;;;;;14.02;6.90;;;;;;;3.48;91.46;99320.38;5055916;28;20032;-65
2021/11/24 08:04:40;;;;;;;12.73;5.63;;;;;;;3.35;90.90;99318.38;5053296;28;20025;-65
2021/11/24 08:07:05;;;;;;;18.70;7.72;;;;;;;3.42;91.05;99294.22;5053626;28;20040;-64
2021/11/24 08:09:31;;;;;;;18.63;7.13;;;;;;;3.53;90.57;99291.84;5054603;28;20032;-65
2021/11/24 08:11:58;;;;;;;21.73;6.38;;;;;;;3.36;90.97;99286.31;5053446;28;20025;-65
2021/11/24 08:14:25;;;;;;;15.70;6.93;;;;;;;3.44;91.13;99284.75;5055046;28;20305;-65
2021/11/24 08:16:50;;;;;;;11.45;5.90;;;;;;;3.46;90.54;99288.25;5054344;28;20056;-65
2021/11/24 08:19:16;;;;;;;17.58;7.05;;;;;;;3.38;90.25;99282.03;5064068;28;20024;-65
2021/11/24 08:21:41;;;;;;;13.07;7.28;;;;;;;3.52;90.23;99274.47;5064824;28;20024;-65
2021/11/24 08:24:06;;;;;;;15.02;6.25;;;;;;;3.51;88.97;99286.59;5065338;28;20047;-65
2021/11/24 08:26:32;;;;;;;12.40;5.88;;;;;;;3.60;88.86;99278.97;5065339;28;20054;-65
2021/11/24 08:28:57;;;;;;;15.40;6.55;;;;;;;3.45;89.84;99276.06;5058392;28;20025;-65
2021/11/24 08:31:22;;;;;;;14.23;6.78;;;;;;;3.50;89.42;99282.25;5054672;28;20067;-65
2021/11/24 08:33:48;;;;;;;14.13;6.53;;;;;;;3.81;88.65;99276.75;5054225;28;20088;-65
2021/11/24 08:36:15;;;;;;;17.40;6.70;;;;;;;3.79;87.65;99268.03;5055726;28;20021;-65
2021/11/24 08:38:42;;;;;;;10.30;5.60;;;;;;;3.95;87.37;99262.22;5054267;28;20017;-65
2021/11/24 08:41:11;;;;;;;9.18;4.85;;;;;;;3.85;87.27;99262.03;5054397;28;20017;-65
2021/11/24 08:43:36;;;;;;;12.75;5.22;;;;;;;4.05;86.06;99266.72;5055573;28;20016;-65
2021/11/24 08:46:02;;;;;;;10.82;5.30;;;;;;;4.21;85.77;99260.91;5054577;28;20025;-65
2021/11/24 08:48:27;;;;;;;12.85;5.38;;;;;;;4.08;85.78;99261.56;5054011;28;20017;-65
2021/11/24 08:50:52;;;;;;;11.15;5.28;;;;;;;4.15;86.43;99267.78;5055435;28;20310;-65
2021/11/24 08:53:19;;;;;;;18.00;7.00;;;;;;;4.43;84.49;99260.38;5053646;28;20077;-65
2021/11/24 08:55:45;;;;;;;11.60;5.95;;;;;;;4.50;84.26;99262.22;5054429;28;20292;-65
2021/11/24 08:58:10;;;;;;;11.50;6.30;;;;;;;4.20;84.48;99256.56;5058049;28;20040;-65
2021/11/24 09:00:36;;;;;;;11.88;5.93;;;;;;;4.28;84.77;99249.72;5064552;28;20313;-65
2021/11/24 09:03:01;;;;;;;16.20;6.18;;;;;;;4.78;82.72;99254.78;5064573;28;20023;-65
2021/11/24 09:05:26;;;;;;;9.07;5.03;;;;;;;5.22;81.16;99251.00;5064461;28;20044;-65
2021/11/24 09:07:52;;;;;;;10.77;5.28;;;;;;;5.32;80.25;99240.66;5064496;28;20021;-65
2021/11/24 09:10:18;;;;;;;9.93;4.85;;;;;;;5.43;79.32;99259.94;5064412;28;20028;-65
2021/11/24 09:12:44;;;;;;;12.07;5.32;;;;;;;5.15;80.05;99228.28;5064301;28;20032;-65
2021/11/24 09:15:09;;;;;;;11.00;5.22;;;;;;;5.12;78.83;99223.06;5064286;28;20017;-65
2021/11/24 09:17:34;;;;;;;9.60;5.07;;;;;;;5.36;79.38;99218.97;5064319;28;20024;-65
2021/11/24 09:20:00;;;;;;;9.75;5.53;;;;;;;5.26;78.01;99222.34;5063143;28;20039;-65
2021/11/24 09:22:25;;;;;;;10.73;5.57;;;;;;;5.20;80.21;99221.41;5063480;28;20063;-65
2021/11/24 09:24:55;;;;;;;10.15;4.97;;;;;;;5.29;78.30;99227.63;5064439;28;20128;-65
2021/11/24 09:27:29;;;;;;;11.07;5.47;;;;;;;5.41;78.49;99229.47;5064146;28;20027;-65
2021/11/24 09:29:56;;;;;;;9.15;4.47;;;;;;;5.40;78.39;99225.09;5064168;28;20320;-65
2021/11/24 09:32:22;;;;;;;9.73;5.07;;;;;;;5.18;78.51;99217.88;5064354;28;20040;-65
2021/11/24 09:34:47;;;;;;;10.25;5.35;;;;;;;5.04;80.18;99219.47;5064071;28;20316;-65
2021/11/24 09:37:13;;;;;;;11.30;5.15;;;;;;;4.87;80.15;99206.22;5064005;28;20025;-65
2021/11/24 09:39:38;;;;;;;9.82;5.13;;;;;;;4.99;80.21;99205.50;5064008;28;20029;-65
2021/11/24 09:42:04;;;;;;;10.68;5.57;;;;;;;4.76;80.15;99201.75;5063973;28;20036;-65
2021/11/24 09:44:31;;;;;;;10.48;5.60;;;;;;;4.57;81.35;99204.97;5064197;28;20028;-65
2021/11/24 09:46:57;;;;;;;11.52;5.95;;;;;;;4.68;81.66;99200.78;5063921;28;20048;-65
2021/11/24 09:49:24;;;;;;;10.82;5.65;;;;;;;4.70;81.76;99193.84;5063857;28;20317;-65
2021/11/24 09:51:50;;;;;;;10.00;5.55;;;;;;;4.88;80.58;99197.56;5063841;28;20031;-65
2021/11/24 09:54:16;;;;;;;13.20;6.13;;;;;;;4.92;79.82;99190.63;5063837;28;20036;-65
2021/11/24 09:56:45;;;;;;;12.75;5.90;;;;;;;4.80;79.81;99193.09;5063722;28;20025;-65
2021/11/24 09:59:12;;;;;;;14.35;6.68;;;;;;;4.74;80.51;99185.22;5064067;28;20063;-65
2021/11/24 10:01:41;;;;;;;10.70;6.10;;;;;;;4.86;80.28;99182.72;5063786;28;20065;-65
2021/11/24 10:04:06;;;;;;;10.48;5.40;;;;;;;4.87;79.40;99179.28;5063651;28;20375;-65
2021/11/24 10:06:34;;;;;;;15.48;6.32;;;;;;;4.92;80.44;99182.81;5063719;28;20088;-65
2021/11/24 10:09:00;;;;;;;11.48;6.45;;;;;;;4.80;80.16;99167.00;5063953;28;20028;-65
2021/11/24 10:11:25;;;;;;;8.82;5.68;;;;;;;4.63;80.40;99173.75;5063659;28;20316;-65
2021/11/24 10:13:51;;;;;;;12.57;6.60;;;;;;;4.52;80.24;99170.16;5063625;28;20033;-65
2021/11/24 10:16:21;;;;;;;12.00;5.45;;;;;;;4.63;80.51;99155.50;5063421;28;20044;-65
2021/11/24 10:18:59;;;;;;;14.15;6.43;;;;;;;4.66;80.58;99158.16;5063850;28;20036;-65
2021/11/24 10:21:25;;;;;;;11.88;5.55;;;;;;;4.49;80.31;99165.75;5063547;28;20088;-65
2021/11/24 10:23:51;;;;;;;10.43;5.13;;;;;;;4.62;81.04;99135.53;5063812;28;20213;-65
2021/11/24 10:26:32;;;;;;;12.48;6.65;;;;;;;4.46;81.13;99129.22;5063785;28;20080;-65
2021/11/24 10:28:59;;;;;;;15.00;7.15;;;;;;;4.50;81.67;99151.91;5063839;28;20044;-65
2021/11/24 10:31:41;;;;;;;11.25;6.45;;;;;;;4.63;80.33;99127.72;5065813;28;20308;-65
2021/11/24 10:34:17;;;;;;;11.68;6.47;;;;;;;4.64;80.35;99118.16;5067469;28;20028;-65
2021/11/24 10:37:05;;;;;;;13.57;7.25;;;;;;;4.47;81.16;99095.38;5067568;28;20088;-65
2021/11/24 10:39:54;;;;;;;14.40;6.57;;;;;;;4.52;80.64;99102.38;5067383;28;20028;-65
2021/11/24 10:42:34;;;;;;;15.95;7.40;;;;;;;4.43;80.03;99119.66;5057695;28;20047;-65
2021/11/24 10:45:10;;;;;;;14.73;7.25;;;;;;;4.47;80.16;99105.78;5067187;28;20025;-65
2021/11/24 10:47:52;;;;;;;11.32;7.00;;;;;;;4.55;80.07;99110.25;5067149;28;20028;-65
2021/11/24 10:50:25;;;;;;;14.82;7.10;;;;;;;4.59;79.81;99093.78;5067157;28;20083;-65
2021/11/24 10:52:51;;;;;;;13.68;6.63;;;;;;;4.53;80.11;99080.66;5067100;28;20012;-65
2021/11/24 10:55:22;;;;;;;13.70;6.68;;;;;;;4.58;79.33;99086.81;5066974;28;20194;-65
2021/11/24 10:58:17;;;;;;;14.18;6.90;;;;;;;4.62;80.34;99083.38;5066925;28;20041;-65
2021/11/24 11:00:46;;;;;;;14.02;6.55;;;;;;;4.72;78.79;99069.59;5067198;28;20044;-65
2021/11/24 11:03:12;;;;;;;14.68;6.65;;;;;;;4.69;79.60;99074.78;5066609;28;20221;-65
2021/11/24 11:05:44;;;;;;;11.60;6.22;;;;;;;4.75;78.91;99075.72;5066813;28;20048;-65
2021/11/24 11:08:12;;;;;;;15.10;6.25;;;;;;;4.90;78.89;99069.78;5063898;28;20037;-65
2021/11/24 11:10:40;;;;;;;13.32;6.60;;;;;;;5.02;78.47;99068.16;5058466;28;20032;-65
2021/11/24 11:13:11;;;;;;;11.52;6.35;;;;;;;5.14;78.64;99076.09;5057332;28;20017;-65
2021/11/24 11:15:42;;;;;;;10.65;5.85;;;;;;;5.11;77.94;99059.53;5049171;28;20248;-65
2021/11/24 11:18:25;;;;;;;12.35;6.15;;;;;;;5.02;78.25;99047.28;5049535;28;20098;-65
2021/11/24 11:20:53;;;;;;;14.57;6.43;;;;;;;5.11;77.92;99049.09;5057525;28;20024;-65
2021/11/24 11:23:30;;;;;;;15.50;6.75;;;;;;;5.20;77.50;99043.97;5057072;28;20059;-65